Accueil
METAR-TAF:

METAR-TAF

Aéroports :

Hartford, Connecticut, États-Unis

latitude: 41-44-06N, longitude: 072-39-06W, altitude: 5 m

Observation

Le bulletin a été fait il y a 41 minutes, à 16:53 UTC
Vent 8 kt de sud-ouest, variant entre sud et ouest
Température 25°C
Humidité 69%
Pression 1012 hPa
Visibilité: 16.1 km
Ciel couvert à une hauteur de 3000 ft

METAR: KHFD 201653Z 23008KT 190V260 10SM OVC030 25/19 A2988 RMK AO2 SLP117 T02500189

Heure: 13:34 (17:34 UTC)


TAF: absent

Observations et prévisions météorologiques de plus de 4000 aéroports (messages METAR et TAF).

Les stations disponibles sont représentées par des disques jaunes et rouges sur la carte.

Passer la souris dessus pour voir le nom de la station.

Cliquer dessus pour voir les observations et prévisions météorologiques.

Pour changer de carte: cliquez sur les boutons verts avec une croix noire pour zoomer, sur le bouton vert avec un tiret pour effectuer un zoom arrière, ou sur les flèches vertes pour les cartes adjacentes.


METAR-TAF: